createdAt,value
2022-07-26T00:01:21.679Z,2.33
2022-07-26T00:03:49.909Z,2.42
2022-07-26T00:06:18.133Z,2.05
2022-07-26T00:08:46.223Z,2.10
2022-07-26T00:11:13.105Z,1.83
2022-07-26T00:13:40.144Z,2.35
2022-07-26T00:16:07.013Z,2.22
2022-07-26T00:18:33.756Z,2.22
2022-07-26T00:21:00.341Z,2.60
2022-07-26T00:23:27.760Z,2.28
2022-07-26T00:25:54.387Z,2.45
2022-07-26T00:28:21.287Z,2.80
2022-07-26T00:30:47.910Z,2.50
2022-07-26T00:33:14.650Z,2.00
2022-07-26T00:35:41.314Z,2.47
2022-07-26T00:38:08.114Z,2.60
2022-07-26T00:40:35.940Z,2.65
2022-07-26T00:43:02.675Z,2.50
2022-07-26T00:45:29.267Z,2.40
2022-07-26T00:47:55.985Z,2.42
2022-07-26T00:50:22.578Z,2.40
2022-07-26T00:52:50.444Z,2.10
2022-07-26T00:55:18.270Z,2.53
2022-07-26T00:57:45.268Z,2.53
2022-07-26T01:00:16.469Z,2.25
2022-07-26T01:02:43.424Z,2.45
2022-07-26T01:05:10.310Z,2.28
2022-07-26T01:07:38.352Z,2.50
2022-07-26T01:10:10.553Z,2.45
2022-07-26T01:12:37.290Z,2.38
2022-07-26T01:15:04.158Z,2.47
2022-07-26T01:17:30.801Z,2.17
2022-07-26T01:19:57.754Z,2.67
2022-07-26T01:22:24.343Z,2.38
2022-07-26T01:24:50.935Z,2.10
2022-07-26T01:27:17.614Z,2.10
2022-07-26T01:29:44.352Z,2.60
2022-07-26T01:32:11.099Z,2.10
2022-07-26T01:34:37.711Z,2.30
2022-07-26T01:37:05.845Z,2.50
2022-07-26T01:39:32.468Z,2.22
2022-07-26T01:41:59.248Z,2.30
2022-07-26T01:44:25.803Z,2.17
2022-07-26T01:46:52.437Z,2.08
2022-07-26T01:49:19.112Z,2.33
2022-07-26T01:51:45.824Z,2.40
2022-07-26T01:54:12.714Z,2.42
2022-07-26T01:56:39.364Z,2.20
2022-07-26T01:59:06.011Z,2.35
2022-07-26T02:01:38.156Z,2.10
2022-07-26T02:04:08.028Z,2.22
2022-07-26T02:06:34.958Z,2.17
2022-07-26T02:09:01.804Z,2.05
2022-07-26T02:11:28.622Z,2.05
2022-07-26T02:13:55.207Z,2.20
2022-07-26T02:16:22.116Z,2.25
2022-07-26T02:18:48.758Z,2.25
2022-07-26T02:21:15.346Z,1.98
2022-07-26T02:23:42.217Z,2.60
2022-07-26T02:26:09.224Z,1.88
2022-07-26T02:28:35.906Z,2.00
2022-07-26T02:31:02.691Z,1.70
2022-07-26T02:33:29.322Z,1.70
2022-07-26T02:35:55.935Z,1.73
2022-07-26T02:38:22.524Z,1.80
2022-07-26T02:40:52.429Z,2.10
2022-07-26T02:43:19.345Z,2.08
2022-07-26T02:46:01.073Z,1.95
2022-07-26T02:48:28.671Z,2.45
2022-07-26T02:50:55.556Z,2.40
2022-07-26T02:53:22.156Z,2.03
2022-07-26T02:55:48.806Z,2.40
2022-07-26T02:58:15.425Z,2.20
2022-07-26T03:00:42.025Z,2.03
2022-07-26T03:03:08.762Z,2.13
2022-07-26T03:05:35.413Z,1.95
2022-07-26T03:08:01.966Z,2.20
2022-07-26T03:10:28.568Z,2.28
2022-07-26T03:12:55.133Z,2.40
2022-07-26T03:15:21.774Z,2.10
2022-07-26T03:17:48.370Z,1.67
2022-07-26T03:20:15.020Z,1.95
2022-07-26T03:22:42.183Z,2.05
2022-07-26T03:25:09.006Z,1.88
2022-07-26T03:27:35.653Z,1.40
2022-07-26T03:30:02.374Z,2.10
2022-07-26T03:32:28.978Z,1.50
2022-07-26T03:34:55.575Z,1.70
2022-07-26T03:37:23.030Z,1.83
2022-07-26T03:39:49.683Z,1.60
2022-07-26T03:42:16.497Z,2.10
2022-07-26T03:44:43.251Z,1.30
2022-07-26T03:47:10.034Z,1.70
2022-07-26T03:49:36.658Z,1.50
2022-07-26T03:52:03.532Z,1.90
2022-07-26T03:54:30.138Z,1.27
2022-07-26T03:56:56.774Z,1.70
2022-07-26T03:59:25.408Z,1.30
2022-07-26T04:01:52.166Z,1.73
2022-07-26T04:04:19.258Z,1.33
2022-07-26T04:06:51.958Z,1.50
2022-07-26T04:09:19.754Z,1.77
2022-07-26T04:11:47.791Z,1.52
2022-07-26T04:14:14.932Z,1.35
2022-07-26T04:16:43.610Z,1.20
2022-07-26T04:19:10.642Z,1.70
2022-07-26T04:21:37.249Z,1.60
2022-07-26T04:24:04.040Z,1.40
2022-07-26T04:26:30.814Z,1.63
2022-07-26T04:28:57.950Z,1.35
2022-07-26T04:31:25.592Z,1.20
2022-07-26T04:33:52.679Z,1.25
2022-07-26T04:36:19.422Z,1.40
2022-07-26T04:38:45.973Z,1.55
2022-07-26T04:41:12.665Z,1.80
2022-07-26T04:43:39.334Z,1.20
2022-07-26T04:46:06.221Z,1.20
2022-07-26T04:48:32.978Z,1.63
2022-07-26T04:51:00.513Z,2.10
2022-07-26T04:53:27.255Z,2.80
2022-07-26T04:55:53.923Z,2.08
2022-07-26T04:58:20.558Z,1.98
2022-07-26T05:01:09.036Z,1.70
2022-07-26T05:03:34.960Z,2.03
2022-07-26T05:06:01.569Z,1.67
2022-07-26T05:08:28.134Z,1.88
2022-07-26T05:10:56.093Z,1.38
2022-07-26T05:13:29.883Z,1.65
2022-07-26T05:15:58.057Z,1.58
2022-07-26T05:18:25.546Z,1.45
2022-07-26T05:20:52.306Z,1.30
2022-07-26T05:23:20.374Z,1.45
2022-07-26T05:25:47.194Z,1.40
2022-07-26T05:28:13.749Z,1.50
2022-07-26T05:30:40.386Z,1.77
2022-07-26T05:33:07.078Z,1.40
2022-07-26T05:35:33.776Z,1.60
2022-07-26T05:38:00.393Z,1.60
2022-07-26T05:40:26.945Z,1.65
2022-07-26T05:42:53.494Z,1.55
2022-07-26T05:45:20.179Z,1.48
2022-07-26T05:47:53.021Z,1.30
2022-07-26T05:50:19.785Z,1.30
2022-07-26T05:52:46.376Z,1.02
2022-07-26T05:55:13.070Z,1.23
2022-07-26T05:57:42.738Z,1.10
2022-07-26T06:00:10.173Z,1.40
2022-07-26T06:02:36.840Z,1.23
2022-07-26T06:05:03.846Z,1.30
2022-07-26T06:07:30.423Z,1.40
2022-07-26T06:09:57.043Z,1.50
2022-07-26T06:12:23.649Z,1.23
2022-07-26T06:14:50.238Z,1.40
2022-07-26T06:17:16.984Z,1.20
2022-07-26T06:19:47.538Z,1.30
2022-07-26T06:22:14.739Z,1.70
2022-07-26T06:24:41.314Z,1.40
2022-07-26T06:27:07.876Z,1.20
2022-07-26T06:29:34.485Z,1.20
2022-07-26T06:32:01.177Z,1.20
2022-07-26T06:34:27.930Z,1.73
2022-07-26T06:36:54.601Z,1.35
2022-07-26T06:39:21.241Z,1.70
2022-07-26T06:41:48.001Z,1.58
2022-07-26T06:44:14.661Z,1.35
2022-07-26T06:46:41.212Z,1.77
2022-07-26T06:49:07.889Z,1.60
2022-07-26T06:51:34.622Z,1.65
2022-07-26T06:54:01.595Z,1.75
2022-07-26T06:56:28.248Z,1.50
2022-07-26T06:58:56.194Z,1.20
2022-07-26T07:01:59.442Z,1.23
2022-07-26T07:04:10.091Z,1.40
2022-07-26T07:06:36.906Z,1.50
2022-07-26T07:09:03.614Z,1.38
2022-07-26T07:11:30.227Z,1.13
2022-07-26T07:13:57.344Z,1.42
2022-07-26T07:16:23.999Z,1.45
2022-07-26T07:18:51.260Z,1.20
2022-07-26T07:21:17.870Z,1.40
2022-07-26T07:23:44.459Z,1.42
2022-07-26T07:26:11.133Z,1.52
2022-07-26T07:28:40.423Z,1.90
2022-07-26T07:31:07.104Z,1.20
2022-07-26T07:33:43.604Z,1.45
2022-07-26T07:36:10.426Z,1.10
2022-07-26T07:38:37.402Z,1.20
2022-07-26T07:41:04.148Z,1.40
2022-07-26T07:43:30.834Z,1.15
2022-07-26T07:45:57.487Z,1.13
2022-07-26T07:48:24.067Z,1.38
2022-07-26T07:50:50.642Z,1.13
2022-07-26T07:53:17.211Z,1.30
2022-07-26T07:55:47.084Z,1.20
2022-07-26T07:58:15.762Z,1.10
2022-07-26T08:00:44.131Z,1.10
2022-07-26T08:03:10.883Z,1.35
2022-07-26T08:05:40.398Z,1.40
2022-07-26T08:08:08.178Z,1.50
2022-07-26T08:10:35.460Z,1.38
2022-07-26T08:13:10.158Z,1.30
2022-07-26T08:15:39.237Z,1.25
2022-07-26T08:18:06.602Z,1.30
2022-07-26T08:20:35.283Z,1.20
2022-07-26T08:23:01.896Z,1.27
2022-07-26T08:25:28.755Z,1.00
2022-07-26T08:28:30.806Z,1.20
2022-07-26T08:30:42.078Z,1.20
2022-07-26T08:33:08.691Z,1.65
2022-07-26T08:35:35.329Z,1.23
2022-07-26T08:38:01.900Z,1.42
2022-07-26T08:40:28.498Z,1.30
2022-07-26T08:42:57.540Z,1.40
2022-07-26T08:45:26.318Z,1.20
2022-07-26T08:48:16.276Z,1.42
2022-07-26T08:50:40.994Z,1.45
2022-07-26T08:53:09.291Z,1.20
2022-07-26T08:56:04.226Z,1.23
2022-07-26T08:58:23.364Z,1.20
2022-07-26T09:01:07.012Z,1.33
2022-07-26T09:03:37.616Z,1.50
2022-07-26T09:06:18.442Z,1.35
2022-07-26T09:08:47.348Z,1.20
2022-07-26T09:11:33.590Z,1.30
2022-07-26T09:14:02.853Z,1.27
2022-07-26T09:16:35.087Z,1.25
2022-07-26T09:19:25.342Z,1.10
2022-07-26T09:21:52.960Z,0.98
2022-07-26T09:24:34.575Z,1.10
2022-07-26T09:27:03.149Z,1.10
2022-07-26T09:29:30.285Z,1.08
2022-07-26T09:32:29.321Z,1.30
2022-07-26T09:35:36.962Z,1.23
2022-07-26T09:37:59.913Z,1.00
2022-07-26T09:40:34.456Z,1.08
2022-07-26T09:43:06.320Z,1.02
2022-07-26T09:45:35.573Z,1.17
2022-07-26T09:48:03.425Z,1.00
2022-07-26T09:50:32.287Z,1.40
2022-07-26T09:53:03.548Z,0.90
2022-07-26T09:55:42.284Z,0.90
2022-07-26T09:58:17.494Z,0.93
2022-07-26T10:00:44.268Z,1.20
2022-07-26T10:03:11.218Z,1.10
2022-07-26T10:05:38.466Z,0.80
2022-07-26T10:08:05.543Z,1.00
2022-07-26T10:10:39.419Z,0.90
2022-07-26T10:13:08.416Z,0.90
2022-07-26T10:15:48.395Z,0.90
2022-07-26T10:18:38.025Z,0.90
2022-07-26T10:21:21.558Z,0.70
2022-07-26T10:23:59.335Z,0.80
2022-07-26T10:26:31.656Z,0.85
2022-07-26T10:29:19.158Z,0.80
2022-07-26T10:31:55.390Z,0.90
2022-07-26T10:34:32.253Z,0.60
2022-07-26T10:37:00.918Z,2.50
2022-07-26T10:39:27.554Z,1.50
2022-07-26T10:42:00.841Z,0.80
2022-07-26T10:44:32.806Z,0.90
2022-07-26T10:47:08.268Z,0.90
2022-07-26T10:49:36.498Z,0.95
2022-07-26T10:52:16.341Z,0.80
2022-07-26T10:55:01.138Z,1.15
2022-07-26T10:57:39.798Z,0.95
2022-07-26T11:00:21.875Z,0.98
2022-07-26T11:02:52.751Z,0.85
2022-07-26T11:05:20.267Z,0.90
2022-07-26T11:07:52.655Z,0.90
2022-07-26T11:10:43.537Z,1.02
2022-07-26T11:13:25.981Z,0.98
2022-07-26T11:16:01.084Z,1.00
2022-07-26T11:18:32.393Z,0.98
2022-07-26T11:21:12.490Z,0.90
2022-07-26T11:23:44.682Z,0.93
2022-07-26T11:26:19.787Z,0.90
2022-07-26T11:28:53.394Z,1.00
2022-07-26T11:31:58.004Z,0.70
2022-07-26T11:34:22.311Z,0.82
2022-07-26T11:36:50.976Z,1.25
2022-07-26T11:39:35.399Z,0.93
2022-07-26T11:42:05.278Z,1.13
2022-07-26T11:44:32.549Z,1.30
2022-07-26T11:46:59.951Z,1.17
2022-07-26T11:52:25.083Z,1.00
2022-07-26T11:57:19.894Z,0.98
2022-07-26T11:59:47.806Z,1.00
2022-07-26T12:02:15.428Z,1.30
2022-07-26T12:04:43.387Z,1.20
2022-07-26T12:07:16.589Z,1.10
2022-07-26T12:09:48.447Z,1.40
2022-07-26T12:12:24.266Z,1.00
2022-07-26T12:15:02.382Z,1.20
2022-07-26T12:17:34.566Z,1.15
2022-07-26T12:20:18.398Z,1.20
2022-07-26T12:23:05.829Z,1.05
2022-07-26T12:25:32.644Z,1.50
2022-07-26T12:27:59.231Z,1.20
2022-07-26T12:30:30.448Z,1.48
2022-07-26T12:33:01.971Z,1.30
2022-07-26T12:35:33.286Z,1.40
2022-07-26T12:38:00.283Z,1.55
2022-07-26T12:40:29.086Z,1.20
2022-07-26T12:43:01.320Z,1.40
2022-07-26T12:45:31.702Z,1.23
2022-07-26T12:48:00.190Z,1.20
2022-07-26T12:50:28.358Z,1.23
2022-07-26T12:53:04.601Z,1.15
2022-07-26T12:55:31.953Z,1.30
2022-07-26T12:57:59.359Z,1.10
2022-07-26T13:00:29.605Z,1.05
2022-07-26T13:02:56.830Z,1.20
2022-07-26T13:05:24.102Z,1.23
2022-07-26T13:07:51.567Z,1.20
2022-07-26T13:10:35.343Z,1.00
2022-07-26T13:13:03.468Z,1.00
2022-07-26T13:15:36.604Z,1.17
2022-07-26T13:18:08.433Z,1.15
2022-07-26T13:20:38.351Z,0.95
2022-07-26T13:23:05.836Z,1.08
2022-07-26T13:25:39.893Z,1.23
2022-07-26T13:28:08.358Z,1.38
2022-07-26T13:30:38.290Z,1.20
2022-07-26T13:33:05.274Z,1.23
2022-07-26T13:35:31.932Z,1.20
2022-07-26T13:37:58.506Z,1.13
2022-07-26T13:40:30.675Z,1.20
2022-07-26T13:42:58.028Z,1.25
2022-07-26T13:45:24.756Z,1.30
2022-07-26T13:47:56.160Z,1.17
2022-07-26T13:50:22.894Z,1.48
2022-07-26T13:52:49.541Z,1.17
2022-07-26T13:55:16.215Z,1.30
2022-07-26T13:57:53.059Z,1.23
2022-07-26T14:00:24.208Z,1.10
2022-07-26T14:02:50.838Z,1.38
2022-07-26T14:05:18.085Z,1.30
2022-07-26T14:07:44.714Z,1.15
2022-07-26T14:10:11.638Z,1.15
2022-07-26T14:12:38.270Z,1.10
2022-07-26T14:15:12.001Z,1.20
2022-07-26T14:17:40.643Z,1.40
2022-07-26T14:20:07.549Z,1.40
2022-07-26T14:22:34.244Z,1.10
2022-07-26T14:25:00.841Z,1.05
2022-07-26T14:27:27.557Z,1.25
2022-07-26T14:29:54.182Z,1.10
2022-07-26T14:32:22.056Z,1.20
2022-07-26T14:34:49.834Z,1.10
2022-07-26T14:37:43.538Z,1.15
2022-07-26T14:40:04.610Z,1.10
2022-07-26T14:42:31.299Z,1.30
2022-07-26T14:44:57.932Z,1.10
2022-07-26T14:47:24.555Z,1.10
2022-07-26T14:49:51.297Z,1.20
2022-07-26T14:52:18.025Z,1.60
2022-07-26T14:54:44.663Z,1.27
2022-07-26T14:57:11.271Z,1.48
2022-07-26T14:59:37.864Z,1.27
2022-07-26T15:02:06.061Z,1.30
2022-07-26T15:04:33.236Z,1.42
2022-07-26T15:07:00.020Z,1.45
2022-07-26T15:09:26.602Z,1.40
2022-07-26T15:11:53.417Z,1.13
2022-07-26T15:14:20.045Z,1.48
2022-07-26T15:16:46.755Z,1.42
2022-07-26T15:19:13.616Z,1.60
2022-07-26T15:21:40.271Z,1.60
2022-07-26T15:24:07.505Z,1.35
2022-07-26T15:26:34.354Z,1.50
2022-07-26T15:29:00.959Z,1.45
2022-07-26T15:31:36.990Z,1.40
2022-07-26T15:34:04.558Z,1.60
2022-07-26T15:36:31.282Z,1.60
2022-07-26T15:39:05.255Z,1.30
2022-07-26T15:41:42.460Z,1.30
2022-07-26T15:44:10.479Z,1.55
2022-07-26T15:46:39.002Z,1.45
2022-07-26T15:49:07.175Z,1.75
2022-07-26T15:51:34.255Z,1.35
2022-07-26T15:54:02.726Z,1.55
2022-07-26T15:56:29.623Z,1.40
2022-07-26T15:58:56.528Z,1.75
2022-07-26T16:01:23.330Z,1.83
2022-07-26T16:03:50.365Z,1.70
2022-07-26T16:06:17.101Z,1.45
2022-07-26T16:09:05.893Z,1.65
2022-07-26T16:11:31.102Z,1.50
2022-07-26T16:14:00.929Z,1.60
2022-07-26T16:16:29.465Z,1.67
2022-07-26T16:18:56.347Z,1.60
2022-07-26T16:21:22.944Z,1.70
2022-07-26T16:23:50.836Z,1.60
2022-07-26T16:26:18.028Z,1.65
2022-07-26T16:28:44.959Z,1.77
2022-07-26T16:31:11.702Z,1.70
2022-07-26T16:33:41.903Z,1.55
2022-07-26T16:36:13.984Z,1.88
2022-07-26T16:38:40.672Z,1.95
2022-07-26T16:41:07.366Z,1.65
2022-07-26T16:43:34.509Z,1.67
2022-07-26T16:46:01.239Z,1.60
2022-07-26T16:48:27.948Z,1.80
2022-07-26T16:50:54.643Z,1.90
2022-07-26T16:53:21.223Z,2.08
2022-07-26T16:55:49.559Z,1.65
2022-07-26T16:58:16.693Z,1.67
2022-07-26T17:00:43.438Z,1.80
2022-07-26T17:03:10.141Z,1.85
2022-07-26T17:05:36.754Z,1.60
2022-07-26T17:08:03.474Z,1.58
2022-07-26T17:10:30.231Z,1.73
2022-07-26T17:12:57.132Z,2.00
2022-07-26T17:15:23.727Z,2.20
2022-07-26T17:17:50.282Z,2.30
2022-07-26T17:20:16.983Z,2.80
2022-07-26T17:22:43.686Z,2.58
2022-07-26T17:25:10.544Z,2.33
2022-07-26T17:27:37.333Z,2.13
2022-07-26T17:30:07.111Z,2.58
2022-07-26T17:32:34.501Z,2.40
2022-07-26T17:35:02.460Z,2.58
2022-07-26T17:37:29.172Z,2.83
2022-07-26T17:39:57.297Z,3.10
2022-07-26T17:42:24.256Z,3.10
2022-07-26T17:44:51.495Z,2.75
2022-07-26T17:47:29.693Z,2.50
2022-07-26T17:50:14.020Z,2.63
2022-07-26T17:52:41.669Z,2.30
2022-07-26T17:55:08.669Z,2.47
2022-07-26T17:57:35.278Z,2.17
2022-07-26T18:00:06.388Z,2.17
2022-07-26T18:02:35.821Z,1.92
2022-07-26T18:05:03.226Z,2.00
2022-07-26T18:07:29.904Z,2.08
2022-07-26T18:09:56.522Z,2.10
2022-07-26T18:12:23.223Z,2.13
2022-07-26T18:14:49.829Z,2.08
2022-07-26T18:17:18.808Z,2.10
2022-07-26T18:19:45.399Z,2.08
2022-07-26T18:22:11.998Z,1.95
2022-07-26T18:24:38.726Z,2.28
2022-07-26T18:27:06.077Z,2.10
2022-07-26T18:29:32.895Z,2.10
2022-07-26T18:32:01.685Z,1.90
2022-07-26T18:34:28.916Z,1.73
2022-07-26T18:36:55.677Z,2.10
2022-07-26T18:39:22.290Z,2.08
2022-07-26T18:41:48.990Z,1.92
2022-07-26T18:44:15.624Z,2.08
2022-07-26T18:46:42.320Z,2.08
2022-07-26T18:49:09.391Z,1.98
2022-07-26T18:51:42.828Z,1.90
2022-07-26T18:54:09.984Z,1.98
2022-07-26T18:56:36.646Z,2.40
2022-07-26T18:59:04.135Z,1.90
2022-07-26T19:01:30.768Z,1.95
2022-07-26T19:03:57.528Z,1.90
2022-07-26T19:06:24.579Z,2.22
2022-07-26T19:08:51.269Z,2.15
2022-07-26T19:11:17.921Z,2.00
2022-07-26T19:13:44.486Z,2.17
2022-07-26T19:16:11.414Z,2.28
2022-07-26T19:18:38.266Z,2.20
2022-07-26T19:21:05.269Z,1.90
2022-07-26T19:23:32.067Z,2.60
2022-07-26T19:25:58.715Z,2.67
2022-07-26T19:28:25.470Z,2.60
2022-07-26T19:30:52.204Z,2.28
2022-07-26T19:33:18.832Z,2.20
2022-07-26T19:35:45.572Z,2.08
2022-07-26T19:38:12.204Z,2.60
2022-07-26T19:40:38.903Z,2.83
2022-07-26T19:43:05.626Z,3.83
2022-07-26T19:45:32.242Z,4.20
2022-07-26T19:47:58.855Z,3.50
2022-07-26T19:50:25.666Z,2.88
2022-07-26T19:52:52.230Z,2.60
2022-07-26T19:55:18.862Z,2.50
2022-07-26T19:57:45.455Z,2.85
2022-07-26T20:00:12.448Z,2.03
2022-07-26T20:02:41.007Z,1.95
2022-07-26T20:05:09.662Z,1.80
2022-07-26T20:07:37.425Z,2.05
2022-07-26T20:10:05.577Z,1.80
2022-07-26T20:12:34.250Z,1.80
2022-07-26T20:15:01.133Z,1.98
2022-07-26T20:17:30.770Z,2.10
2022-07-26T20:19:57.645Z,1.90
2022-07-26T20:22:24.321Z,1.85
2022-07-26T20:24:55.045Z,1.80
2022-07-26T20:27:22.634Z,2.13
2022-07-26T20:29:49.571Z,1.80
2022-07-26T20:32:16.547Z,2.30
2022-07-26T20:34:43.301Z,2.30
2022-07-26T20:37:09.908Z,1.95
2022-07-26T20:39:36.528Z,2.33
2022-07-26T20:42:03.213Z,2.08
2022-07-26T20:44:30.398Z,2.03
2022-07-26T20:46:57.235Z,2.03
2022-07-26T20:49:24.148Z,2.00
2022-07-26T20:51:50.849Z,2.03
2022-07-26T20:54:17.673Z,2.05
2022-07-26T20:56:44.317Z,2.53
2022-07-26T20:59:11.142Z,2.03
2022-07-26T21:01:38.055Z,2.28
2022-07-26T21:04:04.765Z,1.98
2022-07-26T21:06:33.024Z,2.10
2022-07-26T21:09:00.350Z,2.20
2022-07-26T21:11:35.754Z,2.10
2022-07-26T21:14:02.515Z,2.00
2022-07-26T21:16:29.202Z,1.90
2022-07-26T21:18:55.904Z,2.10
2022-07-26T21:21:23.358Z,2.22
2022-07-26T21:23:50.019Z,2.22
2022-07-26T21:26:16.621Z,2.10
2022-07-26T21:28:43.194Z,2.15
2022-07-26T21:31:09.750Z,2.00
2022-07-26T21:33:36.380Z,1.90
2022-07-26T21:36:03.123Z,1.80
2022-07-26T21:38:31.842Z,1.90
2022-07-26T21:40:59.236Z,1.75
2022-07-26T21:43:25.855Z,1.70
2022-07-26T21:45:52.593Z,1.73
2022-07-26T21:48:19.203Z,1.70
2022-07-26T21:50:45.791Z,1.80
2022-07-26T21:53:13.474Z,2.05
2022-07-26T21:55:40.470Z,1.75
2022-07-26T21:58:07.285Z,1.77
2022-07-26T22:00:36.489Z,1.60
2022-07-26T22:03:03.516Z,1.58
2022-07-26T22:05:39.466Z,1.63
2022-07-26T22:08:08.882Z,1.50
2022-07-26T22:10:42.344Z,1.65
2022-07-26T22:13:11.082Z,1.27
2022-07-26T22:15:37.687Z,1.48
2022-07-26T22:18:04.505Z,1.23
2022-07-26T22:20:32.642Z,1.00
2022-07-26T22:23:04.246Z,0.90
2022-07-26T22:25:32.626Z,0.70
2022-07-26T22:27:59.688Z,1.10
2022-07-26T22:30:28.363Z,0.98
2022-07-26T22:32:56.499Z,1.10
2022-07-26T22:35:24.880Z,1.15
2022-07-26T22:37:52.147Z,0.90
2022-07-26T22:40:23.525Z,0.90
2022-07-26T22:42:50.480Z,0.80
2022-07-26T22:45:17.094Z,0.70
2022-07-26T22:47:46.959Z,0.70
2022-07-26T22:50:24.860Z,0.85
2022-07-26T22:52:52.127Z,0.60
2022-07-26T22:55:18.792Z,0.60
2022-07-26T22:57:45.683Z,0.80
2022-07-26T23:00:14.490Z,0.85
2022-07-26T23:02:41.096Z,0.40
2022-07-26T23:05:08.475Z,0.70
2022-07-26T23:07:35.595Z,0.77
2022-07-26T23:10:03.630Z,0.70
2022-07-26T23:12:30.686Z,0.73
2022-07-26T23:14:57.475Z,0.60
2022-07-26T23:17:24.229Z,0.60
2022-07-26T23:19:51.003Z,1.05
2022-07-26T23:22:17.694Z,0.60
2022-07-26T23:24:44.282Z,0.80
2022-07-26T23:27:10.941Z,0.70
2022-07-26T23:29:37.578Z,0.73
2022-07-26T23:32:04.421Z,0.77
2022-07-26T23:34:30.958Z,0.70
2022-07-26T23:36:57.606Z,0.70
2022-07-26T23:39:24.260Z,0.80
2022-07-26T23:41:50.914Z,0.75
2022-07-26T23:44:17.525Z,0.52
2022-07-26T23:46:44.198Z,0.73
2022-07-26T23:49:11.351Z,0.60
2022-07-26T23:51:38.807Z,0.60
2022-07-26T23:54:05.969Z,0.70
2022-07-26T23:56:32.523Z,0.80
2022-07-26T23:58:59.065Z,0.70
